Winters, California
Current Conditions -  °F | °C
As of 6:53 PM on Saturday 25 Oct 2014 (Local Time) from KVCB Reporting Station
Few Clouds Few Clouds  
Wind Chill: 62°   Ceiling: Unl
Heat Index: 62°   Visibility: 10mi
Dew Point: 56°   Wind: 10mph
Humidity: 80%   Direction: 230°SW
Pressure: 30.06"   Gusts: NA
Location:  38.52°N, 121.97°W
Report Text: KVCB 260153Z AUTO 23009KT 10SM FEW037 17/13 A3006 RMK AO2 SLP179 T01670133 TSNO
Loading
Personal Weather Stations






























Interactive Weather Map
Tropical Storm Tracking
New forecast layout! Learn more

10-Day Weather Forecast

Advertisements
Track Severe Weather on mobile